Mc Call Municipal Airport
KMYL : now visible

Airfield :











YOU CAN JOIN US ON...

 
LOGIN :

Register | Disclaimer

   EN    FR    IT 

 









Legend :    VFR   Marginal VFR   IFR   Intensive IFR   Very Intensive IFR
Visi :
Ceiling :
>= 8 km
>= 3000ft
5 to 8 km
1000 to 3000 ft
1500m to 5 km
500 to 1000 ft
800 to 1500m
200 to 500 ft
< 800m
< 200 ft
Symbols :   Thunderstorms  Fog  Heavy snow  Heavy precipitations  Wind > 20 kt






- Airport Elevation : 5024 ft


KMYL - Mc Call Municipal

CURRENT METAR :
  • 110751Z AUTO 00000KT 10SM SCT029 BKN120 M06/M08 A3008 RMK AO2 SLP232 T10611083

EXPIRED METARs :
  • 110737Z AUTO 00000KT 10SM BKN029 OVC110 M06/M08 A3008 RMK AO2 T10611083
  • 110651Z AUTO 00000KT 10SM FEW033 SCT110 M07/M09 A3010 RMK AO2 SLP243 T10671094 410111128
  • 110551Z AUTO 00000KT 10SM FEW120 M07/M09 A3012 RMK AO2 SLP253 T10671089 11028 21072 56007

TAF KMYL
Valid from the 11 at 06:00 until the 12 at 06:00 UTC


110536Z 1106/1206 VRB03KT P6SM SCT020 OVC100
FM110900 17006KT P6SM VCSH BKN035 OVC050
FM111000 17006KT 3SM -SHSN OVC015
TEMPO 1111/1114 1SM -SHSN OVC004
FM111600 VRB03KT 1SM BR VCSH OVC004
FM112000 18004KT 5SM BR OVC015



MET'MAP, your aeronautical weather chart ! - Copyright ORBIFLY December 2007 - Disclaimer

ORBIFLY MET'MAP TEAM :

Programming & Development : Alexandra Zaïnal
Concept & original design : Baudouin d'Aumeries
Assistance for programming : Marc-Olivier Méhu
Technical & hardware support : Manuel Goepfert

Contact : metmap@orbifly.com




SOURCES & CREDITS :

   NOAA       Earth
Advisory